createdAt,value
2017-07-31T00:01:17.292Z,1013.04
2017-07-31T00:02:39.441Z,1013.05
2017-07-31T00:04:02.360Z,1013.08
2017-07-31T00:05:24.830Z,1013.08
2017-07-31T00:06:47.142Z,1013.07
2017-07-31T00:08:09.318Z,1013.12
2017-07-31T00:09:31.511Z,1013.13
2017-07-31T00:10:53.491Z,1013.12
2017-07-31T00:12:15.640Z,1013.08
2017-07-31T00:13:37.500Z,1013.11
2017-07-31T00:14:59.613Z,1013.1
2017-07-31T00:16:21.454Z,1013.09
2017-07-31T00:17:43.611Z,1013.1
2017-07-31T00:19:05.487Z,1013.13
2017-07-31T00:20:27.952Z,1013.09
2017-07-31T00:21:50.093Z,1013.11
2017-07-31T00:23:11.919Z,1013.11
2017-07-31T00:24:33.849Z,1013
2017-07-31T00:25:56.380Z,1013
2017-07-31T00:27:18.554Z,1012.93
2017-07-31T00:28:40.698Z,1012.9
2017-07-31T00:30:03.179Z,1012.92
2017-07-31T00:31:24.943Z,1012.93
2017-07-31T00:32:46.478Z,1012.98
2017-07-31T00:34:08.019Z,1012.99
2017-07-31T00:35:30.269Z,1013.01
2017-07-31T00:36:52.707Z,1013.03
2017-07-31T00:38:15.309Z,1013.02
2017-07-31T00:39:36.820Z,1013.06
2017-07-31T00:40:59.039Z,1013.04
2017-07-31T00:42:20.831Z,1013.12
2017-07-31T00:43:42.380Z,1013.19
2017-07-31T00:45:04.260Z,1013.19
2017-07-31T00:46:26.419Z,1013.27
2017-07-31T00:47:48.923Z,1013.31
2017-07-31T00:49:11.068Z,1013.35
2017-07-31T00:50:32.883Z,1013.36
2017-07-31T00:51:54.734Z,1013.36
2017-07-31T00:53:17.507Z,1013.36
2017-07-31T00:54:39.780Z,1013.37
2017-07-31T00:56:01.669Z,1013.33
2017-07-31T00:57:23.495Z,1013.33
2017-07-31T00:58:46.407Z,1013.26
2017-07-31T01:00:08.232Z,1013.23
2017-07-31T01:01:30.708Z,1013.21
2017-07-31T01:02:52.862Z,1013.2
2017-07-31T01:04:15.350Z,1013.19
2017-07-31T01:05:37.851Z,1013.23
2017-07-31T01:07:00.089Z,1013.29
2017-07-31T01:08:22.232Z,1013.3
2017-07-31T01:09:44.331Z,1013.27
2017-07-31T01:11:06.199Z,1013.28
2017-07-31T01:12:28.059Z,1013.21
2017-07-31T01:13:49.567Z,1013.23
2017-07-31T01:15:12.042Z,1013.3
2017-07-31T01:16:34.200Z,1013.28
2017-07-31T01:17:56.347Z,1013.31
2017-07-31T01:19:18.518Z,1013.27
2017-07-31T01:20:41.331Z,1013.24
2017-07-31T01:22:02.878Z,1013.26
2017-07-31T01:23:24.760Z,1013.27
2017-07-31T01:24:46.899Z,1013.31
2017-07-31T01:26:09.816Z,1013.27
2017-07-31T01:27:32.280Z,1013.29
2017-07-31T01:28:54.417Z,1013.36
2017-07-31T01:30:15.945Z,1013.27
2017-07-31T01:31:38.390Z,1013.24
2017-07-31T01:33:00.402Z,1013.18
2017-07-31T01:34:22.878Z,1013.21
2017-07-31T01:35:45.498Z,1013.21
2017-07-31T01:37:07.271Z,1013.26
2017-07-31T01:38:29.428Z,1013.22
2017-07-31T01:39:50.939Z,1013.24
2017-07-31T01:41:12.502Z,1013.29
2017-07-31T01:42:34.341Z,1013.29
2017-07-31T01:43:56.229Z,1013.32
2017-07-31T01:45:18.077Z,1013.29
2017-07-31T01:46:38.969Z,1013.32
2017-07-31T01:48:01.101Z,1013.31
2017-07-31T01:49:23.672Z,1013.29
2017-07-31T01:50:45.850Z,1013.26
2017-07-31T01:52:07.691Z,1013.26
2017-07-31T01:53:30.150Z,1013.23
2017-07-31T01:54:51.373Z,1013.26
2017-07-31T01:56:13.610Z,1013.24
2017-07-31T01:57:35.452Z,1013.26
2017-07-31T01:58:57.880Z,1013.32
2017-07-31T02:00:19.706Z,1013.35
2017-07-31T02:01:41.220Z,1013.36
2017-07-31T02:03:03.044Z,1013.39
2017-07-31T02:04:24.812Z,1013.42
2017-07-31T02:05:47.028Z,1013.42
2017-07-31T02:07:08.611Z,1013.41
2017-07-31T02:08:30.156Z,1013.44
2017-07-31T02:09:52.759Z,1013.44
2017-07-31T02:11:14.588Z,1013.43
2017-07-31T02:12:36.609Z,1013.45
2017-07-31T02:13:59.093Z,1013.36
2017-07-31T02:15:21.841Z,1013.37
2017-07-31T02:16:43.710Z,1013.38
2017-07-31T02:18:05.576Z,1013.41
2017-07-31T02:19:28.152Z,1013.41
2017-07-31T02:20:50.659Z,1013.42
2017-07-31T02:22:12.231Z,1013.43
2017-07-31T02:23:34.429Z,1013.51
2017-07-31T02:24:56.260Z,1013.54
2017-07-31T02:26:18.402Z,1013.57
2017-07-31T02:27:40.618Z,1013.53
2017-07-31T02:29:01.800Z,1013.54
2017-07-31T02:30:23.952Z,1013.52
2017-07-31T02:31:45.833Z,1013.57
2017-07-31T02:33:08.299Z,1013.59
2017-07-31T02:34:29.814Z,1013.6
2017-07-31T02:35:51.982Z,1013.64
2017-07-31T02:37:13.750Z,1013.54
2017-07-31T02:38:36.012Z,1013.59
2017-07-31T02:39:57.850Z,1013.58
2017-07-31T02:41:20.045Z,1013.51
2017-07-31T02:42:41.541Z,1013.49
2017-07-31T02:44:03.387Z,1013.48
2017-07-31T02:45:25.233Z,1013.52
2017-07-31T02:46:47.090Z,1013.55
2017-07-31T02:48:08.864Z,1013.57
2017-07-31T02:49:31.002Z,1013.53
2017-07-31T02:50:53.491Z,1013.52
2017-07-31T02:52:15.658Z,1013.56
2017-07-31T02:53:37.480Z,1013.53
2017-07-31T02:54:59.075Z,1013.47
2017-07-31T02:56:20.581Z,1013.47
2017-07-31T02:57:42.459Z,1013.5
2017-07-31T02:59:05.200Z,1013.51
2017-07-31T03:00:26.718Z,1013.55
2017-07-31T03:01:48.870Z,1013.57
2017-07-31T03:03:11.010Z,1013.56
2017-07-31T03:04:33.483Z,1013.59
2017-07-31T03:05:55.519Z,1013.65
2017-07-31T03:07:16.760Z,1013.64
2017-07-31T03:08:38.285Z,1013.66
2017-07-31T03:10:00.740Z,1013.58
2017-07-31T03:11:22.880Z,1013.57
2017-07-31T03:12:44.705Z,1013.64
2017-07-31T03:14:05.897Z,1013.6
2017-07-31T03:15:28.311Z,1013.68
2017-07-31T03:16:50.474Z,1013.63
2017-07-31T03:18:12.309Z,1013.64
2017-07-31T03:19:34.590Z,1013.68
2017-07-31T03:20:56.731Z,1013.63
2017-07-31T03:22:18.879Z,1013.65
2017-07-31T03:23:40.821Z,1013.62
2017-07-31T03:25:03.299Z,1013.63
2017-07-31T03:26:25.817Z,1013.63
2017-07-31T03:27:48.279Z,1013.66
2017-07-31T03:29:10.113Z,1013.63
2017-07-31T03:30:31.999Z,1013.65
2017-07-31T03:31:54.416Z,1013.66
2017-07-31T03:33:16.249Z,1013.61
2017-07-31T03:34:38.464Z,1013.63
2017-07-31T03:36:00.304Z,1013.63
2017-07-31T03:37:22.438Z,1013.7
2017-07-31T03:38:44.292Z,1013.7
2017-07-31T03:40:06.754Z,1013.73
2017-07-31T03:41:28.593Z,1013.68
2017-07-31T03:42:51.000Z,1013.71
2017-07-31T03:44:12.622Z,1013.77
2017-07-31T03:45:35.104Z,1013.76
2017-07-31T03:46:56.750Z,1013.79
2017-07-31T03:48:18.882Z,1013.81
2017-07-31T03:49:40.809Z,1013.77
2017-07-31T03:51:03.050Z,1013.8
2017-07-31T03:52:24.335Z,1013.82
2017-07-31T03:53:47.071Z,1013.84
2017-07-31T03:55:09.234Z,1013.86
2017-07-31T03:56:31.098Z,1013.92
2017-07-31T03:57:52.694Z,1013.9
2017-07-31T03:59:15.501Z,1013.92
2017-07-31T04:00:37.043Z,1013.94
2017-07-31T04:01:59.350Z,1013.98
2017-07-31T04:03:20.959Z,1014
2017-07-31T04:04:43.858Z,1013.98
2017-07-31T04:06:05.694Z,1014.03
2017-07-31T04:07:27.235Z,1014.05
2017-07-31T04:08:49.393Z,1014.05
2017-07-31T04:10:11.802Z,1014.05
2017-07-31T04:11:34.031Z,1014.1
2017-07-31T04:12:55.853Z,1014.11
2017-07-31T04:14:17.544Z,1014.11
2017-07-31T04:15:40.061Z,1014.09
2017-07-31T04:17:02.530Z,1014.1
2017-07-31T04:18:24.733Z,1014.12
2017-07-31T04:19:46.887Z,1014.12
2017-07-31T04:21:09.360Z,1014.17
2017-07-31T04:22:31.591Z,1014.15
2017-07-31T04:23:53.440Z,1014.15
2017-07-31T04:25:15.687Z,1014.14
2017-07-31T04:26:37.738Z,1014.14
2017-07-31T04:27:59.937Z,1014.14
2017-07-31T04:29:21.516Z,1014.16
2017-07-31T04:30:43.431Z,1014.1
2017-07-31T04:32:05.884Z,1014.1
2017-07-31T04:33:27.560Z,1014.08
2017-07-31T04:34:49.163Z,1014.08
2017-07-31T04:36:10.379Z,1014.05
2017-07-31T04:37:32.970Z,1014.03
2017-07-31T04:38:55.131Z,1014.07
2017-07-31T04:40:16.641Z,1014.14
2017-07-31T04:41:38.463Z,1014.13
2017-07-31T04:43:00.860Z,1014.18
2017-07-31T04:44:22.701Z,1014.19
2017-07-31T04:45:44.848Z,1014.22
2017-07-31T04:47:06.372Z,1014.25
2017-07-31T04:48:29.128Z,1014.22
2017-07-31T04:49:51.025Z,1014.23
2017-07-31T04:51:12.960Z,1014.24
2017-07-31T04:52:34.551Z,1014.28
2017-07-31T04:53:57.050Z,1014.25
2017-07-31T04:55:19.540Z,1014.26
2017-07-31T04:56:41.371Z,1014.33
2017-07-31T04:58:03.588Z,1014.36
2017-07-31T04:59:26.353Z,1014.39
2017-07-31T05:00:48.521Z,1014.36
2017-07-31T05:02:10.048Z,1014.38
2017-07-31T05:03:32.499Z,1014.38
2017-07-31T05:04:54.894Z,1014.46
2017-07-31T05:06:17.061Z,1014.4
2017-07-31T05:07:39.211Z,1014.42
2017-07-31T05:09:01.038Z,1014.45
2017-07-31T05:10:22.560Z,1014.48
2017-07-31T05:11:44.439Z,1014.49
2017-07-31T05:13:06.064Z,1014.42
2017-07-31T05:14:27.910Z,1014.54
2017-07-31T05:15:50.379Z,1014.64
2017-07-31T05:17:12.202Z,1014.7
2017-07-31T05:18:34.021Z,1014.76
2017-07-31T05:19:55.501Z,1014.76
2017-07-31T05:21:18.011Z,1014.75
2017-07-31T05:22:40.170Z,1014.86
2017-07-31T05:24:01.998Z,1014.87
2017-07-31T05:25:23.552Z,1014.91
2017-07-31T05:26:45.411Z,1014.9
2017-07-31T05:28:07.326Z,1014.95
2017-07-31T05:29:29.204Z,1014.95
2017-07-31T05:30:51.368Z,1015.03
2017-07-31T05:32:13.510Z,1015.03
2017-07-31T05:33:35.326Z,1015.05
2017-07-31T05:34:57.467Z,1015.14
2017-07-31T05:36:19.392Z,1015.17
2017-07-31T05:37:41.280Z,1015.21
2017-07-31T05:39:03.479Z,1015.16
2017-07-31T05:40:25.635Z,1015.17
2017-07-31T05:41:47.811Z,1015.16
2017-07-31T05:43:10.338Z,1015.09
2017-07-31T05:44:32.201Z,1015.1
2017-07-31T05:45:54.371Z,1015.1
2017-07-31T05:47:16.711Z,1015.13
2017-07-31T05:48:39.511Z,1015.11
2017-07-31T05:50:01.037Z,1015.14
2017-07-31T05:51:23.230Z,1015.1
2017-07-31T05:52:45.717Z,1015.15
2017-07-31T05:54:08.163Z,1015.19
2017-07-31T05:55:30.430Z,1015.19
2017-07-31T05:56:53.030Z,1015.19
2017-07-31T05:58:15.190Z,1015.2
2017-07-31T05:59:37.341Z,1015.14
2017-07-31T06:00:59.544Z,1015.09
2017-07-31T06:02:21.752Z,1015.15
2017-07-31T06:03:43.932Z,1015.15
2017-07-31T06:05:06.090Z,1015.08
2017-07-31T06:06:28.589Z,1015.11
2017-07-31T06:07:50.448Z,1015.1
2017-07-31T06:09:12.612Z,1015.1
2017-07-31T06:10:35.397Z,1015.2
2017-07-31T06:11:57.866Z,1015.2
2017-07-31T06:13:19.713Z,1015.17
2017-07-31T06:14:41.727Z,1015.14
2017-07-31T06:16:03.893Z,1015.2
2017-07-31T06:17:26.099Z,1015.21
2017-07-31T06:18:47.649Z,1015.19
2017-07-31T06:20:09.837Z,1015.22
2017-07-31T06:21:31.431Z,1015.18
2017-07-31T06:22:53.632Z,1015.17
2017-07-31T06:24:15.325Z,1015.17
2017-07-31T06:25:36.855Z,1015.2
2017-07-31T06:26:59.016Z,1015.26
2017-07-31T06:28:20.921Z,1015.27
2017-07-31T06:29:42.788Z,1015.29
2017-07-31T06:31:05.027Z,1015.3
2017-07-31T06:32:26.887Z,1015.28
2017-07-31T06:33:49.063Z,1015.3
2017-07-31T06:35:10.912Z,1015.34
2017-07-31T06:36:32.449Z,1015.36
2017-07-31T06:37:54.597Z,1015.39
2017-07-31T06:39:16.489Z,1015.5
2017-07-31T06:40:38.975Z,1015.49
2017-07-31T06:42:00.869Z,1015.5
2017-07-31T06:43:23.026Z,1015.49
2017-07-31T06:44:44.908Z,1015.51
2017-07-31T06:46:06.830Z,1015.52
2017-07-31T06:47:29.031Z,1015.55
2017-07-31T06:48:51.407Z,1015.54
2017-07-31T06:50:13.973Z,1015.53
2017-07-31T06:51:36.171Z,1015.59
2017-07-31T06:52:58.059Z,1015.55
2017-07-31T06:54:20.803Z,1015.54
2017-07-31T06:55:42.345Z,1015.6
2017-07-31T06:57:04.219Z,1015.52
2017-07-31T06:58:25.195Z,1015.49
2017-07-31T06:59:47.737Z,1015.57
2017-07-31T07:01:09.310Z,1015.54
2017-07-31T07:02:31.811Z,1015.55
2017-07-31T07:03:54.320Z,1015.55
2017-07-31T07:05:16.454Z,1015.53
2017-07-31T07:06:38.640Z,1015.55
2017-07-31T07:08:00.179Z,1015.57
2017-07-31T07:09:22.697Z,1015.59
2017-07-31T07:10:44.933Z,1015.61
2017-07-31T07:12:07.090Z,1015.58
2017-07-31T07:13:28.952Z,1015.59
2017-07-31T07:14:50.970Z,1015.57
2017-07-31T07:16:13.455Z,1015.55
2017-07-31T07:17:35.330Z,1015.56
2017-07-31T07:18:56.875Z,1015.53
2017-07-31T07:20:19.081Z,1015.55
2017-07-31T07:21:41.888Z,1015.53
2017-07-31T07:23:04.381Z,1015.54
2017-07-31T07:24:25.618Z,1015.52
2017-07-31T07:25:48.137Z,1015.54
2017-07-31T07:27:10.404Z,1015.52
2017-07-31T07:28:31.949Z,1015.53
2017-07-31T07:29:53.921Z,1015.55
2017-07-31T07:31:15.868Z,1015.57
2017-07-31T07:32:38.297Z,1015.55
2017-07-31T07:33:59.847Z,1015.64
2017-07-31T07:35:21.382Z,1015.59
2017-07-31T07:36:43.609Z,1015.62
2017-07-31T07:38:06.171Z,1015.65
2017-07-31T07:39:28.371Z,1015.61
2017-07-31T07:40:50.910Z,1015.4
2017-07-31T07:42:13.093Z,1015.44
2017-07-31T07:43:35.241Z,1015.54
2017-07-31T07:44:56.797Z,1015.54
2017-07-31T07:46:18.681Z,1015.52
2017-07-31T07:47:40.864Z,1015.49
2017-07-31T07:49:03.253Z,1015.47
2017-07-31T07:50:25.195Z,1015.39
2017-07-31T07:51:47.395Z,1015.4
2017-07-31T07:53:09.583Z,1015.48
2017-07-31T07:54:32.020Z,1015.53
2017-07-31T07:55:54.199Z,1015.53
2017-07-31T07:57:16.710Z,1015.56
2017-07-31T07:58:38.948Z,1015.59
2017-07-31T08:00:01.501Z,1015.43
2017-07-31T08:01:24.077Z,1015.51
2017-07-31T08:02:46.081Z,1015.63
2017-07-31T08:04:08.359Z,1015.49
2017-07-31T08:05:30.472Z,1015.36
2017-07-31T08:06:52.968Z,1015.29
2017-07-31T08:08:15.140Z,1015.34
2017-07-31T08:09:37.000Z,1015.5
2017-07-31T08:10:59.428Z,1015.54
2017-07-31T08:12:21.665Z,1015.51
2017-07-31T08:13:43.820Z,1015.45
2017-07-31T08:15:06.008Z,1015.36
2017-07-31T08:16:28.800Z,1015.28
2017-07-31T08:17:51.467Z,1015.3
2017-07-31T08:19:13.641Z,1015.23
2017-07-31T08:20:35.494Z,1015.23
2017-07-31T08:21:58.237Z,1015.24
2017-07-31T08:23:20.146Z,1015.28
2017-07-31T08:24:42.012Z,1015.31
2017-07-31T08:26:04.504Z,1015.29
2017-07-31T08:27:27.002Z,1015.35
2017-07-31T08:28:47.909Z,1015.33
2017-07-31T08:30:10.401Z,1015.35
2017-07-31T08:31:32.619Z,1015.34
2017-07-31T08:32:54.716Z,1015.31
2017-07-31T08:34:16.352Z,1015.32
2017-07-31T08:35:38.656Z,1015.36
2017-07-31T08:37:00.254Z,1015.37
2017-07-31T08:38:22.858Z,1015.34
2017-07-31T08:39:45.158Z,1015.3
2017-07-31T08:41:07.348Z,1015.3
2017-07-31T08:42:29.300Z,1015.34
2017-07-31T08:43:51.119Z,1015.31
2017-07-31T08:45:12.462Z,1015.24
2017-07-31T08:46:34.660Z,1015.24
2017-07-31T08:47:56.900Z,1015.25
2017-07-31T08:49:19.380Z,1015.24
2017-07-31T08:50:41.559Z,1015.21
2017-07-31T08:52:02.779Z,1015.19
2017-07-31T08:53:25.153Z,1015.25
2017-07-31T08:54:47.888Z,1015.31
2017-07-31T08:56:10.063Z,1015.32
2017-07-31T08:57:32.037Z,1015.26
2017-07-31T08:58:53.880Z,1015.19
2017-07-31T09:00:15.991Z,1015.2
2017-07-31T09:01:37.519Z,1015.2
2017-07-31T09:02:59.834Z,1015.23
2017-07-31T09:04:22.080Z,1015.24
2017-07-31T09:05:44.468Z,1015.24
2017-07-31T09:07:06.011Z,1015.27
2017-07-31T09:08:28.549Z,1015.21
2017-07-31T09:09:50.716Z,1015.26
2017-07-31T09:11:12.355Z,1015.21
2017-07-31T09:12:34.577Z,1015.27
2017-07-31T09:13:55.822Z,1015.28
2017-07-31T09:15:18.010Z,1015.31
2017-07-31T09:16:40.577Z,1015.32
2017-07-31T09:18:03.074Z,1015.31
2017-07-31T09:19:25.268Z,1015.3
2017-07-31T09:20:47.414Z,1015.23
2017-07-31T09:22:09.834Z,1015.2
2017-07-31T09:23:31.543Z,1015.15
2017-07-31T09:24:53.720Z,1015.14
2017-07-31T09:26:16.012Z,1015.08
2017-07-31T09:27:38.590Z,1015.12
2017-07-31T09:29:00.879Z,1015.13
2017-07-31T09:30:23.121Z,1015.13
2017-07-31T09:31:45.717Z,1015.15
2017-07-31T09:33:08.209Z,1015.11
2017-07-31T09:34:30.090Z,1015.09
2017-07-31T09:35:52.388Z,1015.08
2017-07-31T09:37:14.917Z,1015.02
2017-07-31T09:38:37.086Z,1014.96
2017-07-31T09:39:58.960Z,1014.96
2017-07-31T09:41:20.897Z,1014.99
2017-07-31T09:42:42.727Z,1015.02
2017-07-31T09:44:05.149Z,1015.1
2017-07-31T09:45:26.990Z,1015.06
2017-07-31T09:46:48.859Z,1015.05
2017-07-31T09:48:11.057Z,1015.07
2017-07-31T09:49:33.608Z,1015.07
2017-07-31T09:50:55.122Z,1015.08
2017-07-31T09:52:17.595Z,1015.03
2017-07-31T09:53:39.559Z,1015.02
2017-07-31T09:55:01.985Z,1015.04
2017-07-31T09:56:23.561Z,1015.05
2017-07-31T09:57:45.805Z,1015.01
2017-07-31T09:59:08.109Z,1015.04
2017-07-31T10:00:30.536Z,1015.01
2017-07-31T10:01:53.021Z,1015.02
2017-07-31T10:03:14.877Z,1015.01
2017-07-31T10:04:37.375Z,1015.03
2017-07-31T10:05:59.848Z,1014.97
2017-07-31T10:07:22.330Z,1015.01
2017-07-31T10:08:44.183Z,1015.01
2017-07-31T10:10:06.410Z,1014.99
2017-07-31T10:11:28.374Z,1014.96
2017-07-31T10:12:50.528Z,1015.07
2017-07-31T10:14:12.502Z,1014.99
2017-07-31T10:15:34.034Z,1014.97
2017-07-31T10:16:56.831Z,1014.99
2017-07-31T10:18:18.702Z,1015.02
2017-07-31T10:19:40.578Z,1015.12
2017-07-31T10:21:02.839Z,1015.12
2017-07-31T10:22:25.316Z,1015.08
2017-07-31T10:23:46.868Z,1015.07
2017-07-31T10:25:09.359Z,1015.12
2017-07-31T10:26:31.515Z,1015.13
2017-07-31T10:27:53.668Z,1015.26
2017-07-31T10:29:15.530Z,1015.29
2017-07-31T10:30:37.797Z,1015.28
2017-07-31T10:32:00.260Z,1015.29
2017-07-31T10:33:22.749Z,1015.26
2017-07-31T10:34:45.252Z,1015.29
2017-07-31T10:36:07.460Z,1015.28
2017-07-31T10:37:29.629Z,1015.2
2017-07-31T10:38:51.780Z,1015.23
2017-07-31T10:40:13.989Z,1015.29
2017-07-31T10:41:36.163Z,1015.37
2017-07-31T10:42:57.696Z,1015.31
2017-07-31T10:44:20.429Z,1015.31
2017-07-31T10:45:42.919Z,1015.32
2017-07-31T10:47:04.770Z,1015.23
2017-07-31T10:48:26.950Z,1015.33
2017-07-31T10:49:49.781Z,1015.29
2017-07-31T10:51:12.258Z,1015.25
2017-07-31T10:52:34.758Z,1015.32
2017-07-31T10:53:57.340Z,1015.34
2017-07-31T10:55:20.110Z,1015.26
2017-07-31T10:56:41.980Z,1015.19
2017-07-31T10:58:04.473Z,1015.14
2017-07-31T10:59:26.949Z,1015.16
2017-07-31T11:00:49.401Z,1015.19
2017-07-31T11:02:11.573Z,1015.19
2017-07-31T11:03:34.070Z,1015.12
2017-07-31T11:04:56.229Z,1015.21
2017-07-31T11:06:18.479Z,1015.2
2017-07-31T11:07:41.079Z,1015.22
2017-07-31T11:09:03.273Z,1015.28
2017-07-31T11:10:25.107Z,1015.24
2017-07-31T11:11:47.710Z,1015.16
2017-07-31T11:13:09.552Z,1015.17
2017-07-31T11:14:31.872Z,1015.25
2017-07-31T11:15:53.716Z,1015.14
2017-07-31T11:17:15.595Z,1015.18
2017-07-31T11:18:38.069Z,1015.17
2017-07-31T11:20:00.276Z,1015.2
2017-07-31T11:21:22.839Z,1015.19
2017-07-31T11:22:45.567Z,1015.15
2017-07-31T11:24:08.051Z,1015.19
2017-07-31T11:25:30.369Z,1015.2
2017-07-31T11:26:52.944Z,1015.18
2017-07-31T11:28:15.051Z,1015.19
2017-07-31T11:29:37.219Z,1015.27
2017-07-31T11:30:59.388Z,1015.23
2017-07-31T11:32:21.871Z,1015.21
2017-07-31T11:33:44.281Z,1015.02
2017-07-31T11:35:06.804Z,1014.9
2017-07-31T11:36:28.980Z,1014.82
2017-07-31T11:37:51.156Z,1014.75
2017-07-31T11:39:13.740Z,1014.75
2017-07-31T11:40:35.901Z,1014.77
2017-07-31T11:41:58.397Z,1014.84
2017-07-31T11:43:20.579Z,1014.78
2017-07-31T11:44:43.390Z,1014.84
2017-07-31T11:46:05.558Z,1014.89
2017-07-31T11:47:28.040Z,1014.96
2017-07-31T11:48:50.549Z,1015
2017-07-31T11:50:12.391Z,1015
2017-07-31T11:51:34.274Z,1014.95
2017-07-31T11:52:56.144Z,1014.97
2017-07-31T11:54:18.342Z,1014.96
2017-07-31T11:55:40.870Z,1015.01
2017-07-31T11:57:03.181Z,1014.99
2017-07-31T11:58:25.337Z,1015.08
2017-07-31T11:59:47.554Z,1015.06
2017-07-31T12:01:09.398Z,1014.94
2017-07-31T12:02:31.598Z,1014.87
2017-07-31T12:03:54.080Z,1014.86
2017-07-31T12:05:15.310Z,1014.88
2017-07-31T12:06:41.130Z,1014.88
2017-07-31T12:08:02.770Z,1014.98
2017-07-31T12:09:24.971Z,1015
2017-07-31T12:10:46.818Z,1015.09
2017-07-31T12:12:09.550Z,1015.04
2017-07-31T12:13:31.413Z,1015.11
2017-07-31T12:14:53.589Z,1015.06
2017-07-31T12:16:16.241Z,1015.09
2017-07-31T12:17:38.331Z,1015.02
2017-07-31T12:19:00.184Z,1014.98
2017-07-31T12:20:22.551Z,1014.93
2017-07-31T12:21:45.056Z,1014.91
2017-07-31T12:23:07.137Z,1014.83
2017-07-31T12:24:29.170Z,1014.87
2017-07-31T12:25:51.347Z,1014.9
2017-07-31T12:27:13.529Z,1014.94
2017-07-31T12:28:36.320Z,1014.9
2017-07-31T12:29:58.617Z,1014.86
2017-07-31T12:31:20.148Z,1014.79
2017-07-31T12:32:42.008Z,1014.78
2017-07-31T12:34:04.682Z,1014.86
2017-07-31T12:35:26.532Z,1014.95
2017-07-31T12:36:48.381Z,1015.03
2017-07-31T12:38:10.952Z,1015.05
2017-07-31T12:39:33.866Z,1015.01
2017-07-31T12:40:55.849Z,1014.98
2017-07-31T12:42:18.015Z,1014.98
2017-07-31T12:43:40.506Z,1014.88
2017-07-31T12:45:02.977Z,1014.92
2017-07-31T12:46:25.289Z,1014.95
2017-07-31T12:47:47.918Z,1014.98
2017-07-31T12:49:09.858Z,1014.92
2017-07-31T12:50:32.402Z,1014.89
2017-07-31T12:51:54.338Z,1014.93
2017-07-31T12:53:16.202Z,1014.92
2017-07-31T12:54:38.718Z,1014.88
2017-07-31T12:56:01.318Z,1014.88
2017-07-31T12:57:23.809Z,1014.9
2017-07-31T12:58:46.437Z,1014.94
2017-07-31T13:00:08.941Z,1014.97
2017-07-31T13:01:31.368Z,1015.02
2017-07-31T13:02:53.589Z,1014.97
2017-07-31T13:04:15.456Z,1014.98
2017-07-31T13:05:37.952Z,1014.94
2017-07-31T13:07:00.510Z,1014.95
2017-07-31T13:08:22.097Z,1014.94
2017-07-31T13:09:43.958Z,1014.9
2017-07-31T13:11:06.148Z,1014.89
2017-07-31T13:12:28.939Z,1014.86
2017-07-31T13:13:50.468Z,1014.91
2017-07-31T13:15:12.961Z,1014.87
2017-07-31T13:16:35.149Z,1014.87
2017-07-31T13:17:57.351Z,1014.82
2017-07-31T13:19:19.840Z,1014.83
2017-07-31T13:20:42.125Z,1014.83
2017-07-31T13:22:04.392Z,1014.91
2017-07-31T13:23:26.840Z,1014.87
2017-07-31T13:24:49.330Z,1014.9
2017-07-31T13:26:11.180Z,1014.93
2017-07-31T13:27:33.666Z,1014.96
2017-07-31T13:28:56.200Z,1014.99
2017-07-31T13:30:18.060Z,1015.02
2017-07-31T13:31:39.937Z,1014.97
2017-07-31T13:33:02.409Z,1015.07
2017-07-31T13:34:24.829Z,1015.06
2017-07-31T13:35:46.670Z,1015.03
2017-07-31T13:37:09.176Z,1015.05
2017-07-31T13:38:31.468Z,1015.07
2017-07-31T13:39:54.220Z,1015.05
2017-07-31T13:41:16.546Z,1015.12
2017-07-31T13:42:39.053Z,1015.17
2017-07-31T13:44:01.535Z,1015.15
2017-07-31T13:45:24.541Z,1015.13
2017-07-31T13:46:47.119Z,1015.18
2017-07-31T13:48:09.653Z,1015.13
2017-07-31T13:49:31.932Z,1015.15
2017-07-31T13:50:54.418Z,1015.14
2017-07-31T13:52:16.971Z,1015.12
2017-07-31T13:53:38.834Z,1015.15
2017-07-31T13:55:00.994Z,1015.15
2017-07-31T13:56:23.415Z,1015.13
2017-07-31T13:57:45.305Z,1015.16
2017-07-31T13:59:07.556Z,1015.1
2017-07-31T14:00:29.765Z,1015.06
2017-07-31T14:01:51.918Z,1015.06
2017-07-31T14:03:14.409Z,1015.07
2017-07-31T14:04:36.928Z,1015.04
2017-07-31T14:05:58.464Z,1015.04
2017-07-31T14:07:21.313Z,1015.08
2017-07-31T14:08:43.178Z,1015.09
2017-07-31T14:10:04.769Z,1015.18
2017-07-31T14:11:27.260Z,1015.23
2017-07-31T14:12:49.793Z,1015.25
2017-07-31T14:14:11.978Z,1015.2
2017-07-31T14:15:34.514Z,1015.22
2017-07-31T14:16:56.789Z,1015.09
2017-07-31T14:18:18.577Z,1015.14
2017-07-31T14:19:41.272Z,1015.17
2017-07-31T14:21:03.788Z,1015.15
2017-07-31T14:22:26.269Z,1015.17
2017-07-31T14:23:48.736Z,1015.14
2017-07-31T14:25:10.643Z,1015.15
2017-07-31T14:26:32.845Z,1015.2
2017-07-31T14:27:55.402Z,1015.21
2017-07-31T14:29:17.860Z,1015.19
2017-07-31T14:30:40.355Z,1015.23
2017-07-31T14:32:02.979Z,1015.2
2017-07-31T14:33:25.468Z,1015.2
2017-07-31T14:34:47.935Z,1015.18
2017-07-31T14:36:10.118Z,1015.2
2017-07-31T14:37:31.979Z,1015.19
2017-07-31T14:38:54.143Z,1015.25
2017-07-31T14:40:16.145Z,1015.3
2017-07-31T14:41:38.608Z,1015.23
2017-07-31T14:43:00.444Z,1015.24
2017-07-31T14:44:22.031Z,1015.29
2017-07-31T14:45:44.518Z,1015.26
2017-07-31T14:47:07.010Z,1015.22
2017-07-31T14:48:29.618Z,1015.2
2017-07-31T14:49:51.800Z,1015.2
2017-07-31T14:51:14.395Z,1015.2
2017-07-31T14:52:37.007Z,1015.21
2017-07-31T14:53:59.521Z,1015.19
2017-07-31T14:55:21.834Z,1015.18
2017-07-31T14:56:44.644Z,1015.15
2017-07-31T14:58:07.248Z,1015.16
2017-07-31T14:59:29.454Z,1015.14
2017-07-31T15:00:51.298Z,1015.11
2017-07-31T15:02:14.259Z,1015.09
2017-07-31T15:03:36.221Z,1015.03
2017-07-31T15:04:58.434Z,1015.04
2017-07-31T15:06:20.648Z,1015.08
2017-07-31T15:07:43.498Z,1015.07
2017-07-31T15:09:06.066Z,1015.03
2017-07-31T15:10:28.260Z,1015.05
2017-07-31T15:11:50.463Z,1015.11
2017-07-31T15:13:12.738Z,1015.11
2017-07-31T15:14:34.616Z,1015.17
2017-07-31T15:15:57.211Z,1015.12
2017-07-31T15:17:19.386Z,1015.11
2017-07-31T15:18:41.163Z,1015.12
2017-07-31T15:20:03.754Z,1015.11
2017-07-31T15:21:25.947Z,1015.11
2017-07-31T15:22:48.130Z,1015.15
2017-07-31T15:24:10.612Z,1015.14
2017-07-31T15:25:32.479Z,1015.2
2017-07-31T15:26:54.978Z,1015.18
2017-07-31T15:28:16.538Z,1015.17
2017-07-31T15:29:38.986Z,1015.15
2017-07-31T15:31:00.831Z,1015.15
2017-07-31T15:32:23.327Z,1015.14
2017-07-31T15:33:45.841Z,1015.15
2017-07-31T15:35:08.649Z,1015.18
2017-07-31T15:36:30.505Z,1015.18
2017-07-31T15:37:52.689Z,1015.16
2017-07-31T15:39:15.188Z,1015.16
2017-07-31T15:40:37.758Z,1015.15
2017-07-31T15:42:00.126Z,1015.16
2017-07-31T15:43:22.322Z,1015.12
2017-07-31T15:44:44.498Z,1015.15
2017-07-31T15:46:07.409Z,1015.1
2017-07-31T15:47:29.970Z,1015.11
2017-07-31T15:48:52.208Z,1015.09
2017-07-31T15:50:14.368Z,1015.05
2017-07-31T15:51:37.256Z,1015.12
2017-07-31T15:52:59.107Z,1015.18
2017-07-31T15:54:21.388Z,1015.2
2017-07-31T15:55:44.023Z,1015.23
2017-07-31T15:57:06.506Z,1015.26
2017-07-31T15:58:29.039Z,1015.32
2017-07-31T15:59:51.253Z,1015.27
2017-07-31T16:01:13.890Z,1015.27
2017-07-31T16:02:36.082Z,1015.24
2017-07-31T16:03:57.944Z,1015.26
2017-07-31T16:05:20.345Z,1015.25
2017-07-31T16:06:42.332Z,1015.23
2017-07-31T16:08:04.767Z,1015.25
2017-07-31T16:09:26.619Z,1015.27
2017-07-31T16:10:49.135Z,1015.22
2017-07-31T16:12:11.086Z,1015.26
2017-07-31T16:13:33.876Z,1015.25
2017-07-31T16:14:56.125Z,1015.31
2017-07-31T16:16:18.277Z,1015.25
2017-07-31T16:17:40.497Z,1015.25
2017-07-31T16:19:03.294Z,1015.25
2017-07-31T16:20:25.229Z,1015.3
2017-07-31T16:21:47.199Z,1015.31
2017-07-31T16:23:09.049Z,1015.3
2017-07-31T16:24:31.808Z,1015.31
2017-07-31T16:25:54.064Z,1015.34
2017-07-31T16:27:16.562Z,1015.37
2017-07-31T16:28:39.075Z,1015.43
2017-07-31T16:30:01.577Z,1015.43
2017-07-31T16:31:24.074Z,1015.49
2017-07-31T16:32:46.377Z,1015.52
2017-07-31T16:34:08.888Z,1015.42
2017-07-31T16:35:31.026Z,1015.52
2017-07-31T16:36:53.229Z,1015.49
2017-07-31T16:38:15.478Z,1015.46